createdAt,value
2019-05-26T00:00:42.477Z,16.12
2019-05-26T00:01:43.507Z,21.12
2019-05-26T00:02:44.528Z,17.90
2019-05-26T00:03:45.848Z,21.37
2019-05-26T00:04:46.883Z,18.40
2019-05-26T00:05:48.077Z,20.10
2019-05-26T00:06:49.247Z,21.12
2019-05-26T00:07:50.568Z,17.00
2019-05-26T00:08:51.580Z,20.52
2019-05-26T00:09:52.589Z,21.05
2019-05-26T00:10:53.603Z,19.82
2019-05-26T00:11:54.661Z,17.62
2019-05-26T00:12:55.761Z,21.80
2019-05-26T00:13:56.771Z,19.92
2019-05-26T00:14:58.112Z,19.77
2019-05-26T00:15:59.128Z,21.02
2019-05-26T00:17:00.148Z,25.85
2019-05-26T00:18:01.197Z,21.73
2019-05-26T00:19:02.308Z,21.70
2019-05-26T00:20:06.857Z,20.10
2019-05-26T00:21:07.873Z,23.77
2019-05-26T00:22:08.902Z,19.25
2019-05-26T00:23:09.920Z,20.60
2019-05-26T00:24:10.963Z,19.77
2019-05-26T00:25:12.088Z,19.95
2019-05-26T00:26:13.091Z,18.92
2019-05-26T00:27:14.113Z,23.75
2019-05-26T00:28:15.125Z,17.80
2019-05-26T00:29:16.132Z,22.80
2019-05-26T00:30:17.574Z,20.60
2019-05-26T00:31:18.690Z,22.77
2019-05-26T00:32:19.696Z,27.37
2019-05-26T00:33:20.766Z,21.87
2019-05-26T00:34:21.835Z,27.52
2019-05-26T00:35:22.852Z,21.68
2019-05-26T00:36:24.227Z,22.42
2019-05-26T00:37:25.317Z,22.17
2019-05-26T00:38:26.330Z,25.23
2019-05-26T00:39:27.663Z,21.97
2019-05-26T00:40:28.682Z,22.22
2019-05-26T00:41:29.693Z,21.37
2019-05-26T00:42:30.732Z,24.70
2019-05-26T00:43:31.717Z,23.18
2019-05-26T00:44:32.732Z,23.12
2019-05-26T00:45:33.853Z,22.50
2019-05-26T00:46:34.985Z,25.02
2019-05-26T00:47:36.083Z,24.70
2019-05-26T00:48:37.089Z,21.27
2019-05-26T00:49:38.108Z,24.72
2019-05-26T00:50:39.213Z,22.70
2019-05-26T00:51:40.242Z,23.22
2019-05-26T00:52:41.261Z,21.10
2019-05-26T00:53:42.288Z,22.87
2019-05-26T00:54:43.306Z,23.73
2019-05-26T00:55:44.413Z,25.30
2019-05-26T00:56:45.424Z,21.25
2019-05-26T00:57:46.478Z,20.23
2019-05-26T00:58:47.552Z,22.82
2019-05-26T00:59:48.571Z,24.02
2019-05-26T01:00:49.607Z,25.12
2019-05-26T01:01:50.642Z,23.87
2019-05-26T01:02:51.648Z,19.65
2019-05-26T01:03:52.681Z,19.52
2019-05-26T01:04:53.687Z,24.05
2019-05-26T01:05:54.708Z,21.45
2019-05-26T01:06:55.724Z,23.18
2019-05-26T01:08:05.773Z,23.70
2019-05-26T01:08:59.661Z,24.32
2019-05-26T01:10:00.676Z,22.40
2019-05-26T01:11:01.732Z,24.35
2019-05-26T01:12:03.123Z,22.42
2019-05-26T01:13:04.639Z,21.42
2019-05-26T01:14:05.658Z,20.72
2019-05-26T01:15:07.700Z,23.12
2019-05-26T01:16:08.714Z,24.55
2019-05-26T01:17:09.719Z,22.40
2019-05-26T01:18:10.783Z,21.73
2019-05-26T01:19:11.874Z,21.90
2019-05-26T01:20:13.295Z,21.68
2019-05-26T01:21:14.302Z,19.52
2019-05-26T01:22:15.313Z,23.27
2019-05-26T01:23:16.346Z,23.18
2019-05-26T01:24:17.356Z,25.97
2019-05-26T01:25:18.360Z,22.45
2019-05-26T01:26:19.402Z,21.80
2019-05-26T01:27:20.412Z,21.00
2019-05-26T01:28:21.744Z,22.05
2019-05-26T01:29:23.079Z,24.92
2019-05-26T01:30:34.808Z,20.68
2019-05-26T01:31:35.822Z,22.00
2019-05-26T01:32:36.841Z,25.43
2019-05-26T01:33:37.868Z,20.50
2019-05-26T01:34:39.191Z,21.87
2019-05-26T01:35:40.511Z,18.65
2019-05-26T01:36:41.630Z,22.32
2019-05-26T01:37:42.752Z,23.87
2019-05-26T01:38:44.272Z,22.70
2019-05-26T01:39:45.287Z,21.00
2019-05-26T01:40:46.332Z,23.32
2019-05-26T01:41:47.414Z,22.65
2019-05-26T01:42:48.444Z,21.62
2019-05-26T01:43:49.469Z,21.93
2019-05-26T01:44:50.835Z,22.35
2019-05-26T01:45:51.840Z,20.75
2019-05-26T01:46:52.959Z,25.55
2019-05-26T01:47:54.539Z,23.00
2019-05-26T01:48:55.871Z,19.52
2019-05-26T01:49:56.889Z,20.97
2019-05-26T01:50:58.240Z,25.75
2019-05-26T01:51:59.262Z,21.25
2019-05-26T01:53:00.297Z,25.27
2019-05-26T01:54:01.312Z,20.15
2019-05-26T01:55:04.743Z,23.45
2019-05-26T01:56:06.052Z,22.32
2019-05-26T01:57:07.301Z,23.27
2019-05-26T01:58:08.332Z,20.92
2019-05-26T01:59:09.346Z,20.68
2019-05-26T02:00:11.013Z,20.72
2019-05-26T02:01:12.016Z,19.20
2019-05-26T02:02:13.036Z,23.20
2019-05-26T02:03:14.112Z,21.52
2019-05-26T02:04:15.382Z,23.40
2019-05-26T02:05:16.501Z,20.17
2019-05-26T02:06:18.473Z,23.98
2019-05-26T02:07:19.592Z,20.23
2019-05-26T02:08:20.614Z,23.02
2019-05-26T02:09:21.624Z,19.80
2019-05-26T02:10:22.663Z,22.25
2019-05-26T02:11:23.688Z,19.45
2019-05-26T02:12:24.689Z,23.57
2019-05-26T02:13:25.709Z,21.07
2019-05-26T02:14:26.711Z,18.60
2019-05-26T02:15:30.036Z,20.37
2019-05-26T02:16:31.045Z,20.45
2019-05-26T02:17:32.061Z,21.23
2019-05-26T02:18:33.120Z,20.57
2019-05-26T02:19:34.441Z,21.77
2019-05-26T02:20:35.456Z,20.30
2019-05-26T02:21:36.472Z,23.42
2019-05-26T02:22:37.485Z,19.73
2019-05-26T02:23:38.802Z,22.05
2019-05-26T02:24:39.808Z,20.37
2019-05-26T02:25:40.836Z,23.10
2019-05-26T02:26:41.863Z,20.92
2019-05-26T02:27:42.864Z,20.08
2019-05-26T02:28:43.891Z,19.95
2019-05-26T02:29:45.133Z,17.50
2019-05-26T02:30:46.145Z,21.48
2019-05-26T02:31:47.172Z,21.37
2019-05-26T02:32:48.279Z,22.70
2019-05-26T02:33:49.312Z,20.50
2019-05-26T02:34:50.320Z,21.33
2019-05-26T02:35:51.334Z,21.62
2019-05-26T02:36:52.351Z,23.95
2019-05-26T02:37:53.426Z,20.70
2019-05-26T02:39:02.636Z,22.48
2019-05-26T02:39:57.696Z,19.95
2019-05-26T02:40:58.807Z,20.10
2019-05-26T02:42:00.184Z,21.82
2019-05-26T02:43:01.300Z,23.77
2019-05-26T02:44:03.431Z,22.27
2019-05-26T02:45:07.955Z,19.42
2019-05-26T02:46:08.974Z,19.40
2019-05-26T02:47:10.818Z,20.88
2019-05-26T02:48:11.957Z,22.60
2019-05-26T02:49:13.476Z,20.32
2019-05-26T02:50:15.697Z,19.48
2019-05-26T02:51:16.715Z,18.80
2019-05-26T02:52:17.842Z,18.27
2019-05-26T02:53:18.861Z,20.55
2019-05-26T02:54:19.992Z,19.95
2019-05-26T02:55:21.297Z,21.65
2019-05-26T02:56:22.621Z,16.85
2019-05-26T02:57:23.621Z,18.75
2019-05-26T02:58:24.629Z,23.87
2019-05-26T02:59:25.649Z,21.57
2019-05-26T03:00:39.765Z,21.80
2019-05-26T03:02:00.771Z,17.90
2019-05-26T03:02:43.915Z,22.70
2019-05-26T03:03:45.000Z,19.85
2019-05-26T03:04:46.926Z,21.00
2019-05-26T03:05:49.055Z,19.12
2019-05-26T03:06:50.565Z,18.45
2019-05-26T03:07:52.880Z,18.95
2019-05-26T03:08:56.989Z,19.90
2019-05-26T03:09:59.312Z,18.27
2019-05-26T03:11:01.540Z,23.05
2019-05-26T03:12:03.748Z,23.35
2019-05-26T03:13:05.036Z,21.48
2019-05-26T03:14:08.957Z,21.45
2019-05-26T03:15:11.985Z,19.00
2019-05-26T03:16:16.296Z,15.93
2019-05-26T03:17:19.321Z,20.80
2019-05-26T03:18:20.331Z,21.07
2019-05-26T03:19:25.164Z,19.85
2019-05-26T03:20:26.195Z,18.57
2019-05-26T03:21:29.289Z,21.90
2019-05-26T03:22:30.809Z,21.25
2019-05-26T03:23:32.130Z,19.48
2019-05-26T03:24:33.250Z,18.52
2019-05-26T03:25:36.200Z,16.70
2019-05-26T03:26:37.594Z,21.35
2019-05-26T03:27:38.809Z,22.02
2019-05-26T03:28:39.813Z,17.77
2019-05-26T03:29:40.836Z,18.77
2019-05-26T03:30:41.885Z,19.17
2019-05-26T03:31:43.014Z,20.00
2019-05-26T03:32:44.109Z,17.90
2019-05-26T03:33:45.133Z,18.35
2019-05-26T03:34:46.549Z,19.60
2019-05-26T03:35:47.568Z,19.60
2019-05-26T03:36:48.585Z,22.27
2019-05-26T03:37:49.813Z,20.60
2019-05-26T03:38:51.030Z,19.90
2019-05-26T03:39:52.049Z,19.17
2019-05-26T03:40:53.088Z,19.20
2019-05-26T03:41:54.091Z,17.85
2019-05-26T03:42:55.301Z,21.68
2019-05-26T03:43:56.417Z,21.00
2019-05-26T03:44:57.434Z,18.35
2019-05-26T03:46:11.405Z,19.40
2019-05-26T03:47:16.544Z,20.30
2019-05-26T03:48:15.569Z,20.55
2019-05-26T03:49:16.591Z,19.30
2019-05-26T03:50:17.609Z,21.97
2019-05-26T03:51:19.136Z,18.67
2019-05-26T03:52:20.568Z,21.07
2019-05-26T03:53:21.566Z,25.20
2019-05-26T03:54:22.582Z,19.73
2019-05-26T03:55:23.599Z,19.90
2019-05-26T03:56:24.618Z,18.07
2019-05-26T03:57:25.841Z,17.45
2019-05-26T03:58:26.849Z,20.77
2019-05-26T03:59:27.851Z,18.82
2019-05-26T04:00:28.882Z,19.42
2019-05-26T04:01:30.026Z,18.12
2019-05-26T04:02:31.105Z,22.50
2019-05-26T04:03:32.116Z,18.65
2019-05-26T04:04:33.145Z,19.92
2019-05-26T04:05:34.166Z,19.67
2019-05-26T04:06:35.179Z,23.62
2019-05-26T04:07:36.182Z,20.27
2019-05-26T04:08:37.301Z,23.77
2019-05-26T04:09:38.322Z,17.77
2019-05-26T04:10:39.353Z,20.30
2019-05-26T04:11:40.379Z,21.95
2019-05-26T04:12:41.384Z,19.77
2019-05-26T04:13:42.398Z,18.07
2019-05-26T04:14:43.414Z,20.12
2019-05-26T04:15:44.421Z,16.82
2019-05-26T04:16:45.441Z,21.35
2019-05-26T04:17:46.459Z,18.37
2019-05-26T04:18:47.561Z,19.20
2019-05-26T04:19:48.597Z,19.15
2019-05-26T04:20:49.733Z,20.92
2019-05-26T04:21:50.745Z,15.63
2019-05-26T04:22:51.767Z,22.58
2019-05-26T04:23:52.883Z,17.62
2019-05-26T04:24:53.893Z,20.02
2019-05-26T04:25:54.917Z,20.65
2019-05-26T04:26:55.938Z,21.10
2019-05-26T04:27:56.953Z,20.65
2019-05-26T04:28:57.963Z,17.90
2019-05-26T04:29:59.080Z,19.85
2019-05-26T04:31:00.111Z,19.92
2019-05-26T04:32:02.278Z,20.92
2019-05-26T04:33:04.048Z,18.57
2019-05-26T04:34:05.066Z,22.15
2019-05-26T04:35:06.686Z,18.52
2019-05-26T04:36:07.700Z,19.05
2019-05-26T04:37:08.776Z,21.33
2019-05-26T04:38:09.833Z,18.37
2019-05-26T04:39:10.852Z,21.85
2019-05-26T04:40:26.013Z,18.55
2019-05-26T04:41:15.097Z,18.57
2019-05-26T04:42:16.208Z,22.22
2019-05-26T04:43:17.224Z,22.22
2019-05-26T04:44:18.228Z,17.92
2019-05-26T04:45:19.240Z,17.67
2019-05-26T04:46:20.294Z,21.42
2019-05-26T04:47:21.308Z,15.30
2019-05-26T04:48:22.320Z,22.77
2019-05-26T04:49:24.106Z,19.92
2019-05-26T04:50:25.160Z,19.32
2019-05-26T04:51:26.210Z,19.98
2019-05-26T04:52:27.292Z,23.45
2019-05-26T04:53:28.310Z,18.45
2019-05-26T04:54:29.317Z,19.77
2019-05-26T04:55:30.331Z,20.90
2019-05-26T04:56:31.356Z,21.52
2019-05-26T04:57:32.377Z,21.25
2019-05-26T04:58:33.388Z,19.82
2019-05-26T04:59:34.418Z,19.77
2019-05-26T05:00:35.428Z,17.50
2019-05-26T05:01:36.444Z,20.15
2019-05-26T05:02:37.487Z,20.37
2019-05-26T05:03:38.572Z,20.55
2019-05-26T05:04:39.600Z,21.42
2019-05-26T05:05:40.616Z,19.27
2019-05-26T05:06:41.636Z,22.27
2019-05-26T05:07:42.656Z,19.75
2019-05-26T05:08:43.661Z,18.57
2019-05-26T05:09:44.692Z,19.85
2019-05-26T05:10:45.955Z,17.80
2019-05-26T05:11:46.981Z,19.50
2019-05-26T05:12:47.995Z,21.77
2019-05-26T05:13:49.021Z,17.92
2019-05-26T05:14:50.020Z,19.87
2019-05-26T05:15:51.050Z,19.27
2019-05-26T05:16:52.065Z,20.20
2019-05-26T05:17:53.088Z,17.90
2019-05-26T05:18:54.408Z,18.65
2019-05-26T05:19:55.480Z,16.85
2019-05-26T05:20:56.561Z,19.25
2019-05-26T05:21:57.589Z,19.73
2019-05-26T05:22:58.610Z,20.25
2019-05-26T05:23:59.812Z,16.87
2019-05-26T05:25:00.925Z,19.82
2019-05-26T05:26:02.044Z,20.02
2019-05-26T05:27:03.064Z,18.62
2019-05-26T05:28:04.080Z,21.55
2019-05-26T05:29:05.661Z,17.70
2019-05-26T05:30:07.797Z,22.42
2019-05-26T05:31:08.800Z,18.87
2019-05-26T05:32:09.829Z,22.32
2019-05-26T05:33:10.845Z,18.25
2019-05-26T05:34:11.876Z,19.67
2019-05-26T05:35:14.092Z,20.92
2019-05-26T05:36:15.104Z,17.17
2019-05-26T05:37:16.685Z,21.85
2019-05-26T05:38:17.949Z,20.95
2019-05-26T05:39:18.969Z,20.55
2019-05-26T05:40:20.180Z,21.00
2019-05-26T05:41:21.200Z,21.05
2019-05-26T05:42:22.228Z,18.98
2019-05-26T05:43:23.544Z,21.20
2019-05-26T05:44:24.869Z,18.55
2019-05-26T05:45:25.885Z,17.67
2019-05-26T05:46:26.912Z,19.30
2019-05-26T05:47:27.937Z,20.10
2019-05-26T05:48:28.960Z,18.85
2019-05-26T05:49:30.041Z,17.48
2019-05-26T05:50:31.092Z,19.42
2019-05-26T05:51:32.099Z,15.43
2019-05-26T05:52:33.127Z,19.05
2019-05-26T05:53:34.141Z,16.90
2019-05-26T05:54:35.153Z,19.25
2019-05-26T05:55:36.425Z,17.82
2019-05-26T05:56:37.442Z,18.45
2019-05-26T05:57:38.469Z,13.75
2019-05-26T05:58:39.481Z,18.87
2019-05-26T05:59:40.692Z,14.33
2019-05-26T06:00:41.720Z,17.12
2019-05-26T06:01:42.713Z,18.98
2019-05-26T06:02:43.733Z,17.80
2019-05-26T06:03:45.043Z,20.37
2019-05-26T06:04:46.064Z,16.48
2019-05-26T06:05:47.073Z,20.40
2019-05-26T06:06:48.087Z,17.87
2019-05-26T06:07:49.140Z,19.32
2019-05-26T06:08:50.160Z,17.42
2019-05-26T06:09:51.508Z,17.80
2019-05-26T06:10:52.536Z,18.73
2019-05-26T06:11:56.825Z,17.37
2019-05-26T06:12:56.467Z,20.35
2019-05-26T06:13:57.490Z,15.85
2019-05-26T06:14:58.509Z,17.20
2019-05-26T06:15:59.512Z,14.90
2019-05-26T06:17:00.530Z,16.57
2019-05-26T06:18:01.553Z,16.82
2019-05-26T06:19:02.902Z,16.42
2019-05-26T06:20:05.201Z,17.60
2019-05-26T06:21:06.208Z,18.73
2019-05-26T06:22:07.229Z,17.35
2019-05-26T06:23:08.249Z,16.25
2019-05-26T06:24:09.257Z,15.32
2019-05-26T06:25:10.374Z,17.70
2019-05-26T06:26:11.452Z,15.63
2019-05-26T06:27:12.473Z,18.15
2019-05-26T06:28:13.488Z,17.42
2019-05-26T06:29:14.501Z,17.50
2019-05-26T06:30:16.120Z,14.85
2019-05-26T06:31:17.336Z,14.13
2019-05-26T06:32:18.670Z,18.60
2019-05-26T06:33:19.684Z,17.20
2019-05-26T06:34:20.729Z,16.95
2019-05-26T06:35:21.852Z,17.70
2019-05-26T06:36:22.926Z,15.20
2019-05-26T06:37:24.037Z,16.93
2019-05-26T06:38:25.060Z,16.07
2019-05-26T06:39:26.173Z,15.78
2019-05-26T06:40:27.202Z,16.20
2019-05-26T06:41:33.476Z,17.87
2019-05-26T06:42:31.621Z,18.37
2019-05-26T06:43:33.573Z,17.57
2019-05-26T06:44:52.093Z,15.35
2019-05-26T06:45:37.688Z,17.48
2019-05-26T06:46:38.711Z,17.57
2019-05-26T06:47:39.719Z,19.35
2019-05-26T06:48:40.753Z,16.73
2019-05-26T06:49:41.778Z,15.43
2019-05-26T06:50:42.780Z,16.50
2019-05-26T06:51:43.888Z,15.85
2019-05-26T06:52:44.901Z,15.30
2019-05-26T06:53:46.225Z,18.80
2019-05-26T06:54:47.450Z,15.83
2019-05-26T06:55:48.457Z,18.37
2019-05-26T06:56:49.468Z,20.10
2019-05-26T06:57:50.485Z,14.70
2019-05-26T06:58:51.521Z,14.78
2019-05-26T06:59:52.540Z,15.20
2019-05-26T07:00:53.695Z,14.63
2019-05-26T07:01:54.889Z,16.48
2019-05-26T07:02:55.910Z,15.53
2019-05-26T07:03:56.933Z,15.50
2019-05-26T07:04:57.944Z,13.35
2019-05-26T07:05:58.965Z,15.93
2019-05-26T07:06:59.980Z,18.65
2019-05-26T07:08:01.289Z,16.77
2019-05-26T07:09:04.805Z,18.57
2019-05-26T07:10:06.619Z,14.70
2019-05-26T07:11:07.628Z,14.70
2019-05-26T07:12:08.754Z,17.35
2019-05-26T07:13:09.760Z,15.45
2019-05-26T07:14:10.783Z,16.45
2019-05-26T07:15:12.200Z,13.83
2019-05-26T07:16:13.315Z,14.98
2019-05-26T07:17:14.320Z,17.00
2019-05-26T07:18:15.351Z,16.90
2019-05-26T07:19:16.386Z,15.58
2019-05-26T07:20:17.642Z,16.77
2019-05-26T07:21:18.644Z,12.70
2019-05-26T07:22:19.665Z,14.68
2019-05-26T07:23:20.678Z,15.88
2019-05-26T07:24:21.706Z,13.62
2019-05-26T07:25:23.116Z,14.13
2019-05-26T07:26:24.245Z,16.00
2019-05-26T07:27:25.414Z,15.28
2019-05-26T07:28:26.661Z,14.90
2019-05-26T07:29:27.977Z,13.50
2019-05-26T07:30:29.005Z,17.42
2019-05-26T07:31:30.012Z,12.45
2019-05-26T07:32:31.024Z,15.08
2019-05-26T07:33:32.067Z,11.97
2019-05-26T07:34:33.076Z,12.47
2019-05-26T07:35:34.092Z,15.35
2019-05-26T07:36:35.138Z,12.13
2019-05-26T07:37:36.201Z,13.18
2019-05-26T07:38:37.284Z,13.08
2019-05-26T07:39:38.296Z,13.32
2019-05-26T07:40:39.322Z,13.03
2019-05-26T07:41:40.448Z,13.43
2019-05-26T07:42:41.457Z,14.35
2019-05-26T07:43:42.479Z,12.65
2019-05-26T07:44:43.489Z,14.58
2019-05-26T07:45:44.507Z,13.40
2019-05-26T07:46:45.524Z,13.65
2019-05-26T07:47:46.532Z,10.18
2019-05-26T07:48:47.554Z,12.82
2019-05-26T07:49:48.568Z,10.58
2019-05-26T07:50:49.577Z,13.20
2019-05-26T07:51:50.596Z,13.25
2019-05-26T07:52:51.727Z,13.70
2019-05-26T07:53:56.013Z,11.28
2019-05-26T07:54:55.673Z,12.73
2019-05-26T07:55:56.680Z,13.43
2019-05-26T07:56:57.829Z,13.72
2019-05-26T07:57:58.891Z,13.13
2019-05-26T07:58:59.990Z,12.55
2019-05-26T08:00:01.124Z,11.10
2019-05-26T08:01:02.151Z,13.48
2019-05-26T08:02:03.357Z,16.45
2019-05-26T08:03:04.376Z,14.60
2019-05-26T08:04:05.610Z,16.62
2019-05-26T08:05:07.834Z,19.67
2019-05-26T08:06:08.849Z,15.63
2019-05-26T08:07:09.861Z,12.80
2019-05-26T08:08:13.205Z,13.88
2019-05-26T08:09:13.925Z,16.25
2019-05-26T08:10:15.684Z,13.88
2019-05-26T08:11:16.700Z,13.40
2019-05-26T08:12:27.057Z,13.85
2019-05-26T08:13:20.884Z,13.00
2019-05-26T08:14:22.418Z,14.65
2019-05-26T08:15:23.424Z,11.35
2019-05-26T08:16:24.450Z,14.58
2019-05-26T08:17:25.765Z,12.88
2019-05-26T08:18:26.776Z,14.80
2019-05-26T08:19:27.817Z,13.72
2019-05-26T08:20:28.856Z,14.70
2019-05-26T08:21:30.023Z,14.03
2019-05-26T08:22:31.340Z,15.35
2019-05-26T08:23:32.360Z,16.60
2019-05-26T08:24:33.395Z,14.45
2019-05-26T08:25:34.710Z,14.65
2019-05-26T08:26:35.715Z,13.35
2019-05-26T08:27:36.737Z,15.08
2019-05-26T08:28:37.744Z,14.00
2019-05-26T08:29:39.100Z,15.25
2019-05-26T08:30:40.208Z,14.10
2019-05-26T08:31:41.236Z,12.75
2019-05-26T08:32:42.265Z,13.72
2019-05-26T08:33:43.297Z,13.45
2019-05-26T08:34:44.308Z,15.90
2019-05-26T08:35:45.324Z,10.30
2019-05-26T08:36:46.332Z,15.60
2019-05-26T08:37:47.351Z,14.80
2019-05-26T08:38:48.360Z,14.13
2019-05-26T08:39:49.391Z,12.53
2019-05-26T08:40:50.408Z,13.25
2019-05-26T08:41:51.448Z,13.32
2019-05-26T08:42:52.748Z,14.75
2019-05-26T08:43:53.877Z,14.93
2019-05-26T08:44:54.889Z,15.53
2019-05-26T08:45:55.905Z,12.90
2019-05-26T08:46:57.016Z,14.60
2019-05-26T08:47:58.045Z,13.53
2019-05-26T08:48:59.257Z,14.55
2019-05-26T08:50:00.381Z,15.05
2019-05-26T08:51:01.393Z,12.65
2019-05-26T08:52:02.414Z,12.63
2019-05-26T08:53:03.432Z,14.70
2019-05-26T08:54:04.768Z,14.45
2019-05-26T08:55:06.004Z,13.00
2019-05-26T08:56:07.053Z,13.28
2019-05-26T08:57:08.071Z,12.65
2019-05-26T08:58:09.099Z,14.98
2019-05-26T08:59:10.104Z,13.35
2019-05-26T09:00:12.829Z,11.43
2019-05-26T09:01:13.885Z,16.17
2019-05-26T09:02:14.971Z,11.90
2019-05-26T09:03:16.068Z,11.68
2019-05-26T09:04:17.088Z,13.45
2019-05-26T09:05:18.416Z,15.63
2019-05-26T09:06:19.448Z,14.63
2019-05-26T09:07:20.812Z,14.75
2019-05-26T09:08:21.884Z,18.27
2019-05-26T09:09:22.893Z,14.43
2019-05-26T09:10:23.924Z,15.25
2019-05-26T09:11:24.960Z,15.63
2019-05-26T09:12:25.964Z,14.58
2019-05-26T09:13:26.976Z,14.05
2019-05-26T09:14:28.000Z,15.20
2019-05-26T09:15:29.048Z,14.13
2019-05-26T09:16:30.168Z,14.75
2019-05-26T09:17:31.293Z,14.60
2019-05-26T09:18:32.303Z,15.75
2019-05-26T09:19:33.323Z,13.08
2019-05-26T09:20:34.600Z,13.15
2019-05-26T09:21:35.611Z,12.55
2019-05-26T09:22:36.850Z,12.90
2019-05-26T09:23:37.844Z,14.23
2019-05-26T09:24:38.871Z,12.00
2019-05-26T09:25:39.981Z,12.95
2019-05-26T09:26:40.992Z,13.83
2019-05-26T09:27:42.004Z,11.78
2019-05-26T09:28:43.016Z,11.60
2019-05-26T09:29:44.029Z,14.75
2019-05-26T09:30:45.159Z,11.93
2019-05-26T09:31:46.168Z,16.20
2019-05-26T09:32:47.283Z,13.75
2019-05-26T09:33:48.324Z,13.13
2019-05-26T09:34:49.340Z,15.13
2019-05-26T09:35:50.364Z,16.25
2019-05-26T09:36:51.584Z,16.57
2019-05-26T09:37:52.596Z,14.35
2019-05-26T09:38:53.612Z,13.13
2019-05-26T09:39:54.632Z,14.45
2019-05-26T09:40:55.753Z,14.30
2019-05-26T09:41:56.764Z,12.05
2019-05-26T09:42:57.792Z,12.93
2019-05-26T09:43:58.801Z,13.35
2019-05-26T09:44:59.821Z,15.18
2019-05-26T09:46:00.844Z,13.62
2019-05-26T09:47:01.988Z,16.67
2019-05-26T09:48:03.018Z,14.78
2019-05-26T09:49:04.028Z,16.40
2019-05-26T09:50:06.952Z,13.70
2019-05-26T09:51:08.408Z,13.83
2019-05-26T09:52:09.432Z,16.07
2019-05-26T09:53:10.849Z,17.80
2019-05-26T09:54:12.838Z,12.03
2019-05-26T09:55:14.489Z,15.93
2019-05-26T09:56:15.520Z,13.30
2019-05-26T09:57:16.532Z,12.37
2019-05-26T09:58:17.544Z,12.13
2019-05-26T09:59:18.630Z,14.53
2019-05-26T10:00:20.417Z,12.75
2019-05-26T10:01:21.458Z,11.95
2019-05-26T10:02:22.480Z,17.60
2019-05-26T10:03:23.495Z,14.25
2019-05-26T10:04:24.516Z,13.60
2019-05-26T10:05:25.534Z,11.68
2019-05-26T10:06:26.544Z,14.20
2019-05-26T10:07:27.564Z,13.20
2019-05-26T10:08:28.588Z,13.08
2019-05-26T10:09:29.609Z,15.18
2019-05-26T10:10:30.620Z,15.95
2019-05-26T10:11:31.656Z,13.05
2019-05-26T10:12:32.771Z,16.00
2019-05-26T10:13:33.792Z,15.15
2019-05-26T10:14:34.834Z,13.20
2019-05-26T10:15:36.033Z,11.28
2019-05-26T10:16:37.059Z,10.10
2019-05-26T10:17:38.297Z,14.83
2019-05-26T10:18:39.385Z,12.15
2019-05-26T10:19:40.405Z,13.08
2019-05-26T10:20:41.633Z,12.80
2019-05-26T10:21:42.656Z,13.22
2019-05-26T10:22:43.664Z,14.47
2019-05-26T10:23:44.684Z,13.10
2019-05-26T10:24:46.004Z,12.80
2019-05-26T10:25:47.045Z,12.63
2019-05-26T10:26:48.051Z,12.70
2019-05-26T10:27:49.068Z,12.98
2019-05-26T10:28:50.087Z,13.08
2019-05-26T10:29:51.120Z,15.13
2019-05-26T10:30:52.199Z,14.13
2019-05-26T10:31:53.733Z,12.28
2019-05-26T10:32:54.836Z,13.80
2019-05-26T10:33:55.913Z,13.08
2019-05-26T10:34:57.028Z,14.30
2019-05-26T10:35:58.170Z,15.03
2019-05-26T10:36:59.281Z,12.10
2019-05-26T10:38:00.406Z,13.45
2019-05-26T10:39:01.412Z,14.60
2019-05-26T10:40:04.634Z,12.58
2019-05-26T10:41:05.669Z,14.00
2019-05-26T10:42:06.798Z,16.48
2019-05-26T10:43:07.912Z,12.68
2019-05-26T10:44:08.931Z,15.40
2019-05-26T10:45:12.344Z,10.08
2019-05-26T10:46:13.377Z,13.13
2019-05-26T10:47:14.392Z,12.00
2019-05-26T10:48:15.400Z,12.05
2019-05-26T10:49:16.412Z,13.48
2019-05-26T10:50:17.424Z,12.20
2019-05-26T10:51:18.643Z,13.93
2019-05-26T10:52:20.096Z,14.03
2019-05-26T10:53:21.168Z,13.95
2019-05-26T10:54:22.240Z,15.38
2019-05-26T10:55:23.251Z,13.53
2019-05-26T10:56:24.268Z,14.18
2019-05-26T10:57:25.276Z,12.65
2019-05-26T10:58:26.388Z,14.00
2019-05-26T10:59:27.408Z,12.90
2019-05-26T11:00:28.421Z,13.20
2019-05-26T11:01:29.588Z,11.45
2019-05-26T11:02:30.791Z,16.85
2019-05-26T11:03:31.812Z,14.68
2019-05-26T11:04:32.818Z,11.80
2019-05-26T11:05:33.832Z,12.00
2019-05-26T11:06:34.971Z,12.47
2019-05-26T11:07:36.095Z,13.32
2019-05-26T11:08:37.107Z,14.05
2019-05-26T11:09:38.128Z,16.48
2019-05-26T11:10:39.653Z,12.68
2019-05-26T11:11:40.664Z,14.65
2019-05-26T11:12:41.680Z,14.50
2019-05-26T11:13:42.877Z,10.85
2019-05-26T11:14:44.221Z,13.93
2019-05-26T11:15:45.236Z,12.33
2019-05-26T11:16:46.261Z,13.40
2019-05-26T11:17:47.276Z,11.35
2019-05-26T11:18:48.288Z,16.60
2019-05-26T11:19:49.611Z,12.13
2019-05-26T11:20:50.736Z,13.00
2019-05-26T11:21:51.763Z,11.80
2019-05-26T11:22:52.827Z,12.93
2019-05-26T11:23:53.839Z,13.43
2019-05-26T11:24:55.160Z,11.33
2019-05-26T11:25:56.332Z,10.45
2019-05-26T11:27:08.067Z,13.10
2019-05-26T11:28:00.289Z,11.28
2019-05-26T11:29:01.304Z,13.98
2019-05-26T11:30:05.829Z,11.55
2019-05-26T11:31:06.848Z,11.08
2019-05-26T11:32:07.870Z,13.95
2019-05-26T11:33:10.136Z,10.28
2019-05-26T11:34:11.419Z,12.47
2019-05-26T11:35:12.939Z,10.38
2019-05-26T11:36:13.992Z,12.55
2019-05-26T11:37:15.068Z,17.98
2019-05-26T11:38:16.180Z,10.18
2019-05-26T11:39:17.206Z,13.08
2019-05-26T11:40:18.637Z,11.38
2019-05-26T11:41:19.715Z,11.88
2019-05-26T11:42:20.828Z,14.87
2019-05-26T11:43:21.832Z,11.43
2019-05-26T11:44:22.909Z,12.58
2019-05-26T11:45:23.921Z,9.58
2019-05-26T11:46:24.941Z,15.05
2019-05-26T11:47:26.271Z,13.62
2019-05-26T11:48:27.313Z,12.03
2019-05-26T11:49:28.324Z,14.38
2019-05-26T11:50:29.335Z,11.95
2019-05-26T11:51:30.348Z,12.00
2019-05-26T11:52:31.362Z,15.10
2019-05-26T11:53:32.375Z,11.03
2019-05-26T11:54:34.626Z,13.28
2019-05-26T11:55:36.032Z,10.28
2019-05-26T11:56:37.317Z,12.10
2019-05-26T11:57:38.417Z,13.60
2019-05-26T11:58:39.432Z,11.93
2019-05-26T11:59:40.457Z,12.35
2019-05-26T12:00:42.205Z,12.60
2019-05-26T12:01:43.218Z,10.40
2019-05-26T12:02:44.743Z,12.43
2019-05-26T12:03:45.860Z,13.00
2019-05-26T12:04:47.099Z,8.63
2019-05-26T12:05:48.121Z,13.43
2019-05-26T12:06:49.500Z,11.68
2019-05-26T12:07:50.528Z,11.75
2019-05-26T12:08:51.656Z,11.28
2019-05-26T12:09:52.700Z,10.38
2019-05-26T12:10:53.712Z,11.90
2019-05-26T12:11:55.227Z,10.90
2019-05-26T12:12:56.278Z,11.38
2019-05-26T12:13:57.368Z,11.03
2019-05-26T12:14:58.376Z,10.25
2019-05-26T12:15:59.392Z,10.68
2019-05-26T12:17:00.410Z,11.08
2019-05-26T12:18:01.437Z,11.73
2019-05-26T12:19:02.555Z,11.00
2019-05-26T12:20:05.525Z,12.90
2019-05-26T12:21:06.893Z,15.32
2019-05-26T12:22:08.011Z,9.53
2019-05-26T12:23:09.136Z,14.35
2019-05-26T12:24:10.184Z,11.03
2019-05-26T12:25:11.819Z,13.85
2019-05-26T12:26:12.936Z,13.25
2019-05-26T12:27:14.175Z,9.50
2019-05-26T12:28:15.328Z,11.75
2019-05-26T12:29:16.428Z,10.80
2019-05-26T12:30:17.837Z,9.13
2019-05-26T12:31:18.859Z,13.22
2019-05-26T12:32:19.972Z,12.58
2019-05-26T12:33:21.005Z,10.98
2019-05-26T12:34:22.121Z,11.05
2019-05-26T12:35:25.144Z,11.28
2019-05-26T12:36:26.164Z,13.78
2019-05-26T12:37:27.176Z,14.45
2019-05-26T12:38:28.190Z,15.15
2019-05-26T12:39:29.208Z,13.40
2019-05-26T12:40:30.239Z,15.35
2019-05-26T12:41:34.006Z,14.43
2019-05-26T12:42:34.164Z,13.03
2019-05-26T12:43:35.461Z,12.07
2019-05-26T12:44:48.594Z,11.50
2019-05-26T12:45:39.505Z,13.15
2019-05-26T12:46:40.522Z,13.05
2019-05-26T12:47:41.573Z,13.62
2019-05-26T12:48:42.656Z,13.43
2019-05-26T12:49:43.698Z,11.43
2019-05-26T12:50:44.826Z,12.55
2019-05-26T12:51:46.126Z,13.70
2019-05-26T12:52:47.274Z,10.68
2019-05-26T12:53:48.471Z,10.32
2019-05-26T12:54:49.655Z,11.22
2019-05-26T12:55:51.212Z,11.08
2019-05-26T12:56:52.219Z,10.28
2019-05-26T12:57:53.256Z,11.00
2019-05-26T12:58:54.276Z,11.05
2019-05-26T12:59:55.296Z,9.65
2019-05-26T13:00:56.309Z,10.78
2019-05-26T13:01:57.330Z,11.25
2019-05-26T13:02:58.361Z,12.25
2019-05-26T13:03:59.453Z,11.25
2019-05-26T13:05:00.490Z,10.80
2019-05-26T13:06:01.521Z,10.78
2019-05-26T13:07:03.531Z,11.45
2019-05-26T13:08:04.752Z,9.53
2019-05-26T13:09:08.573Z,13.18